Terminal Aerodrome Forecast
Issued by NWS St Louis, MO

Home | Current Version | Previous Version | Text Only | Print | Product List | Glossary On
Versions: 1 2 3 4 5 6 7 8 9 10 11 12 13 14 15 16 17 18 19 20 21 22 23 24 25 26 27 28 29
000
FTUS43 KLSX 272300
TAFSTL
TAF
KSTL 272320Z 2800/2906 32011KT P6SM VCSH BKN040
      TEMPO 2800/2801 -SHRA BKN035
     FM280100 VRB04KT P6SM SKC
     FM281500 24007KT P6SM SCT040 BKN250
     FM282300 20012G18KT P6SM VCTS SCT050CB SCT100
     FM290400 24008KT P6SM BKN040 BKN080=

USA.gov is the U.S. government's official web portal to all federal, state and local government web resources and services.